PWSweather.com
Personal Weather Stations
Station Observations
KCOGRAND2
Redlands, Southcamp Road & Dakota Circle, Grand Junction, CO 81507

Redlands, Southcamp Road & Dakota CircleGrand Junction, CO 81507

Lat: 39.055, Lon: -108.637

Elevation: 4870

Station Type: RadioShack WX200

Latest ConditionsUpdated 8:01:40 PM MDT Saturday, May 28, 2016
Currently Today's Max Today's Min Today's Average
Temperature 69.4°F20.8°C 76.6°F24.8°C 45.9°F7.7°C 61.8°F16.6°C
Dew Point -5537.2°C 38.5°F3.6°C 13.8°F-10.1°C 31.0°F-0.6°C
Winds 12.0 mph S19.3 kmh S 12.0 mph S19.3 kmh S - 4.1 mph 6.6 kmh
Wind Gusts 16.8 mph27.0 kmh 19.0 mph30.6 kmh - -
Humidity - 70% 11% 44%
Pressure 25.04 in848.0 mb 25.10 in850.0 mb 25.01 in846.9 mb -
Hour Temp Dew Point Humidity Winds Wind Gusts Pressure Precip Precip Rate Daily Precip Total
08:01 PM 69.4°F20.8°C -5537.2°C - 12.0 mph S19.3 kmh S 16.8 mph27.0 kmh 25.04 in848.0 mb 0.00 in0.0 mm 0.00 in0.0 mm 0.00 in0.0 mm
07:56 PM 69.6°F20.9°C -5537.2°C - 10.0 mph S16.1 kmh S 19.0 mph30.6 kmh 25.04 in848.0 mb 0.00 in0.0 mm 0.00 in0.0 mm 0.00 in0.0 mm
07:51 PM 70.3°F21.3°C -5537.2°C - 9.0 mph S14.5 kmh S 15.4 mph24.8 kmh 25.04 in848.0 mb 0.00 in0.0 mm 0.00 in0.0 mm 0.00 in0.0 mm
07:46 PM 70.9°F21.6°C -5537.2°C - 10.0 mph S16.1 kmh S 15.9 mph25.6 kmh 25.04 in848.0 mb 0.00 in0.0 mm 0.00 in0.0 mm 0.00 in0.0 mm
07:41 PM 70.9°F21.6°C -5537.2°C - 8.0 mph S12.9 kmh S 17.7 mph28.5 kmh 25.01 in846.9 mb 0.00 in0.0 mm 0.00 in0.0 mm 0.00 in0.0 mm
07:36 PM 71.4°F21.9°C -5537.2°C - 6.0 mph S9.7 kmh S 14.3 mph23.0 kmh 25.01 in846.9 mb 0.00 in0.0 mm 0.00 in0.0 mm 0.00 in0.0 mm
07:31 PM 72.0°F22.2°C -5537.2°C - 5.0 mph S8.0 kmh S 6.9 mph11.1 kmh 25.01 in846.9 mb 0.00 in0.0 mm 0.00 in0.0 mm 0.00 in0.0 mm
07:26 PM 72.5°F22.5°C -5537.2°C - 4.0 mph SSW6.4 kmh SSW 6.9 mph11.1 kmh 25.01 in846.9 mb 0.00 in0.0 mm 0.00 in0.0 mm 0.00 in0.0 mm
07:21 PM 73.2°F22.9°C -5537.2°C - 4.0 mph SSW6.4 kmh SSW 7.8 mph12.6 kmh 25.01 in846.9 mb 0.00 in0.0 mm 0.00 in0.0 mm 0.00 in0.0 mm
07:16 PM 73.2°F22.9°C -5537.2°C - 4.0 mph SSW6.4 kmh SSW 6.9 mph11.1 kmh 25.01 in846.9 mb 0.00 in0.0 mm 0.00 in0.0 mm 0.00 in0.0 mm
07:11 PM 73.4°F23.0°C -5537.2°C - 3.0 mph SW4.8 kmh SW 7.4 mph11.9 kmh 25.01 in846.9 mb 0.00 in0.0 mm 0.00 in0.0 mm 0.00 in0.0 mm
07:06 PM 73.8°F23.2°C -5537.2°C - 3.0 mph WSW4.8 kmh WSW 5.4 mph8.7 kmh 25.01 in846.9 mb 0.00 in0.0 mm 0.00 in0.0 mm 0.00 in0.0 mm
07:01 PM 73.9°F23.3°C -5537.2°C - 5.0 mph SW8.0 kmh SW 6.9 mph11.1 kmh 25.01 in846.9 mb 0.00 in0.0 mm 0.00 in0.0 mm 0.00 in0.0 mm
06:56 PM 74.7°F23.7°C -5537.2°C - 6.0 mph WSW9.7 kmh WSW 6.9 mph11.1 kmh 25.01 in846.9 mb 0.00 in0.0 mm 0.00 in0.0 mm 0.00 in0.0 mm
06:51 PM 75.0°F23.9°C -5537.2°C - 6.0 mph W9.7 kmh W 9.2 mph14.8 kmh 25.01 in846.9 mb 0.00 in0.0 mm 0.00 in0.0 mm 0.00 in0.0 mm
06:46 PM 74.7°F23.7°C -5537.2°C - 6.0 mph WSW9.7 kmh WSW 9.6 mph15.4 kmh 25.01 in846.9 mb 0.00 in0.0 mm 0.00 in0.0 mm 0.00 in0.0 mm
06:41 PM 74.7°F23.7°C -5537.2°C - 4.0 mph W6.4 kmh W 10.1 mph16.3 kmh 25.01 in846.9 mb 0.00 in0.0 mm 0.00 in0.0 mm 0.00 in0.0 mm
06:36 PM 74.1°F23.4°C -5537.2°C - 3.0 mph WNW4.8 kmh WNW 6.7 mph10.8 kmh 25.01 in846.9 mb 0.00 in0.0 mm 0.00 in0.0 mm 0.00 in0.0 mm
06:31 PM 74.1°F23.4°C -5537.2°C - 4.0 mph NW6.4 kmh NW 6.7 mph10.8 kmh 25.01 in846.9 mb 0.00 in0.0 mm 0.00 in0.0 mm 0.00 in0.0 mm
06:26 PM 74.3°F23.5°C -5537.2°C - 4.0 mph NW6.4 kmh NW 8.3 mph13.4 kmh 25.01 in846.9 mb 0.00 in0.0 mm 0.00 in0.0 mm 0.00 in0.0 mm
06:21 PM 75.4°F24.1°C -5537.2°C - 4.0 mph WNW6.4 kmh WNW 7.8 mph12.6 kmh 25.01 in846.9 mb 0.00 in0.0 mm 0.00 in0.0 mm 0.00 in0.0 mm
06:16 PM 75.7°F24.3°C -5537.2°C - 6.0 mph WSW9.7 kmh WSW 10.1 mph16.3 kmh 25.01 in846.9 mb 0.00 in0.0 mm 0.00 in0.0 mm 0.00 in0.0 mm
06:11 PM 75.0°F23.9°C -5537.2°C - 5.0 mph W8.0 kmh W 8.7 mph14.0 kmh 25.01 in846.9 mb 0.00 in0.0 mm 0.00 in0.0 mm 0.00 in0.0 mm
06:06 PM 74.8°F23.8°C -5537.2°C - 4.0 mph WNW6.4 kmh WNW 7.4 mph11.9 kmh 25.01 in846.9 mb 0.00 in0.0 mm 0.00 in0.0 mm 0.00 in0.0 mm
06:01 PM 75.4°F24.1°C -5537.2°C - 3.0 mph W4.8 kmh W 6.9 mph11.1 kmh 25.01 in846.9 mb 0.00 in0.0 mm 0.00 in0.0 mm 0.00 in0.0 mm
05:56 PM 75.6°F24.2°C -5537.2°C - 4.0 mph W6.4 kmh W 6.7 mph10.8 kmh 25.01 in846.9 mb 0.00 in0.0 mm 0.00 in0.0 mm 0.00 in0.0 mm
05:51 PM 74.8°F23.8°C -5537.2°C - 5.0 mph W8.0 kmh W 7.8 mph12.6 kmh 25.01 in846.9 mb 0.00 in0.0 mm 0.00 in0.0 mm 0.00 in0.0 mm
05:46 PM 74.1°F23.4°C -5537.2°C - 4.0 mph W6.4 kmh W 8.3 mph13.4 kmh 25.01 in846.9 mb 0.00 in0.0 mm 0.00 in0.0 mm 0.00 in0.0 mm
05:41 PM 73.8°F23.2°C -5537.2°C - 4.0 mph NW6.4 kmh NW 7.8 mph12.6 kmh 25.01 in846.9 mb 0.00 in0.0 mm 0.00 in0.0 mm 0.00 in0.0 mm
05:36 PM 73.6°F23.1°C -5537.2°C - 4.0 mph WNW6.4 kmh WNW 6.7 mph10.8 kmh 25.01 in846.9 mb 0.00 in0.0 mm 0.00 in0.0 mm 0.00 in0.0 mm
05:31 PM 74.1°F23.4°C -5537.2°C - 4.0 mph WSW6.4 kmh WSW 4.9 mph7.9 kmh 25.01 in846.9 mb 0.00 in0.0 mm 0.00 in0.0 mm 0.00 in0.0 mm
05:26 PM 74.1°F23.4°C -5537.2°C - 4.0 mph WSW6.4 kmh WSW 7.4 mph11.9 kmh 25.01 in846.9 mb 0.00 in0.0 mm 0.00 in0.0 mm 0.00 in0.0 mm
05:21 PM 74.5°F23.6°C -5537.2°C - 4.0 mph W6.4 kmh W 7.4 mph11.9 kmh 25.01 in846.9 mb 0.00 in0.0 mm 0.00 in0.0 mm 0.00 in0.0 mm
05:16 PM 73.9°F23.3°C -5537.2°C - 5.0 mph WSW8.0 kmh WSW 9.2 mph14.8 kmh 25.01 in846.9 mb 0.00 in0.0 mm 0.00 in0.0 mm 0.00 in0.0 mm
05:11 PM 74.1°F23.4°C -5537.2°C - 7.0 mph SW11.3 kmh SW 8.3 mph13.4 kmh 25.01 in846.9 mb 0.00 in0.0 mm 0.00 in0.0 mm 0.00 in0.0 mm
05:06 PM 76.1°F24.5°C -5537.2°C - 8.0 mph WSW12.9 kmh WSW 13.4 mph21.6 kmh 25.01 in846.9 mb 0.00 in0.0 mm 0.00 in0.0 mm 0.00 in0.0 mm
05:01 PM 75.2°F24.0°C -5537.2°C - 6.0 mph W9.7 kmh W 11.0 mph17.7 kmh 25.01 in846.9 mb 0.00 in0.0 mm 0.00 in0.0 mm 0.00 in0.0 mm
04:56 PM 76.6°F24.8°C -5537.2°C - 6.0 mph WNW9.7 kmh WNW 11.6 mph18.7 kmh 25.01 in846.9 mb 0.00 in0.0 mm 0.00 in0.0 mm 0.00 in0.0 mm
04:51 PM 74.8°F23.8°C -5537.2°C - 5.0 mph NW8.0 kmh NW 11.2 mph18.0 kmh 25.01 in846.9 mb 0.00 in0.0 mm 0.00 in0.0 mm 0.00 in0.0 mm
04:46 PM 76.1°F24.5°C -5537.2°C - 6.0 mph N9.7 kmh N 7.8 mph12.6 kmh 25.01 in846.9 mb 0.00 in0.0 mm 0.00 in0.0 mm 0.00 in0.0 mm
04:41 PM 76.1°F24.5°C -5537.2°C - 6.0 mph N9.7 kmh N 11.0 mph17.7 kmh 25.01 in846.9 mb 0.00 in0.0 mm 0.00 in0.0 mm 0.00 in0.0 mm
04:36 PM 76.6°F24.8°C -5537.2°C - 5.0 mph NNW8.0 kmh NNW 9.6 mph15.4 kmh 25.01 in846.9 mb 0.00 in0.0 mm 0.00 in0.0 mm 0.00 in0.0 mm
04:31 PM 76.3°F24.6°C -5537.2°C - 4.0 mph W6.4 kmh W 8.3 mph13.4 kmh 25.01 in846.9 mb 0.00 in0.0 mm 0.00 in0.0 mm 0.00 in0.0 mm
04:26 PM 76.3°F24.6°C -5537.2°C - 4.0 mph S6.4 kmh S 6.9 mph11.1 kmh 25.01 in846.9 mb 0.00 in0.0 mm 0.00 in0.0 mm 0.00 in0.0 mm
04:21 PM 76.1°F24.5°C -5537.2°C - 4.0 mph W6.4 kmh W 10.5 mph16.9 kmh 25.01 in846.9 mb 0.00 in0.0 mm 0.00 in0.0 mm 0.00 in0.0 mm
04:16 PM 76.3°F24.6°C -5537.2°C - 5.0 mph NNE8.0 kmh NNE 7.8 mph12.6 kmh 25.01 in846.9 mb 0.00 in0.0 mm 0.00 in0.0 mm 0.00 in0.0 mm
04:11 PM 75.6°F24.2°C -5537.2°C - 6.0 mph N9.7 kmh N 11.6 mph18.7 kmh 25.01 in846.9 mb 0.00 in0.0 mm 0.00 in0.0 mm 0.00 in0.0 mm
04:06 PM 75.4°F24.1°C -5537.2°C - 5.0 mph NW8.0 kmh NW 12.5 mph20.1 kmh 25.01 in846.9 mb 0.00 in0.0 mm 0.00 in0.0 mm 0.00 in0.0 mm
04:01 PM 75.7°F24.3°C -5537.2°C - 6.0 mph WNW9.7 kmh WNW 10.5 mph16.9 kmh 25.01 in846.9 mb 0.00 in0.0 mm 0.00 in0.0 mm 0.00 in0.0 mm
03:56 PM 75.7°F24.3°C -5537.2°C - 7.0 mph WSW11.3 kmh WSW 15.4 mph24.8 kmh 25.01 in846.9 mb 0.00 in0.0 mm 0.00 in0.0 mm 0.00 in0.0 mm
03:51 PM 74.1°F23.4°C -5537.2°C - 5.0 mph WSW8.0 kmh WSW 8.3 mph13.4 kmh 25.01 in846.9 mb 0.00 in0.0 mm 0.00 in0.0 mm 0.00 in0.0 mm
03:46 PM 74.7°F23.7°C -5537.2°C - 5.0 mph WNW8.0 kmh WNW 9.6 mph15.4 kmh 25.01 in846.9 mb 0.00 in0.0 mm 0.00 in0.0 mm 0.00 in0.0 mm
03:41 PM 74.7°F23.7°C -5537.2°C - 7.0 mph W11.3 kmh W 10.5 mph16.9 kmh 25.04 in848.0 mb 0.00 in0.0 mm 0.00 in0.0 mm 0.00 in0.0 mm
03:36 PM 73.8°F23.2°C -5537.2°C - 6.0 mph WSW9.7 kmh WSW 12.5 mph20.1 kmh 25.04 in848.0 mb 0.00 in0.0 mm 0.00 in0.0 mm 0.00 in0.0 mm
03:31 PM 75.4°F24.1°C -5537.2°C - 5.0 mph N8.0 kmh N 11.0 mph17.7 kmh 25.04 in848.0 mb 0.00 in0.0 mm 0.00 in0.0 mm 0.00 in0.0 mm
03:26 PM 74.1°F23.4°C -5537.2°C - 5.0 mph NW8.0 kmh NW 9.6 mph15.4 kmh 25.04 in848.0 mb 0.00 in0.0 mm 0.00 in0.0 mm 0.00 in0.0 mm
03:21 PM 75.2°F24.0°C -5537.2°C - 4.0 mph WSW6.4 kmh WSW 7.8 mph12.6 kmh 25.04 in848.0 mb 0.00 in0.0 mm 0.00 in0.0 mm 0.00 in0.0 mm
03:16 PM 72.3°F22.4°C -5537.2°C - 5.0 mph E8.0 kmh E 7.8 mph12.6 kmh 25.04 in848.0 mb 0.00 in0.0 mm 0.00 in0.0 mm 0.00 in0.0 mm
03:11 PM 72.3°F22.4°C -5537.2°C - 6.0 mph SE9.7 kmh SE 12.5 mph20.1 kmh 25.04 in848.0 mb 0.00 in0.0 mm 0.00 in0.0 mm 0.00 in0.0 mm
03:06 PM 72.5°F22.5°C -5537.2°C - 5.0 mph WNW8.0 kmh WNW 8.3 mph13.4 kmh 25.04 in848.0 mb 0.00 in0.0 mm 0.00 in0.0 mm 0.00 in0.0 mm
03:01 PM 74.1°F23.4°C -5537.2°C - 6.0 mph N9.7 kmh N 12.5 mph20.1 kmh 25.04 in848.0 mb 0.00 in0.0 mm 0.00 in0.0 mm 0.00 in0.0 mm
02:56 PM 74.1°F23.4°C -5537.2°C - 7.0 mph NNW11.3 kmh NNW 14.3 mph23.0 kmh 25.04 in848.0 mb 0.00 in0.0 mm 0.00 in0.0 mm 0.00 in0.0 mm
02:51 PM 75.2°F24.0°C -5537.2°C - 6.0 mph S9.7 kmh S 10.5 mph16.9 kmh 25.04 in848.0 mb 0.00 in0.0 mm 0.00 in0.0 mm 0.00 in0.0 mm
02:46 PM 75.2°F24.0°C -5537.2°C - 5.0 mph E8.0 kmh E 11.2 mph18.0 kmh 25.04 in848.0 mb 0.00 in0.0 mm 0.00 in0.0 mm 0.00 in0.0 mm
02:41 PM 74.7°F23.7°C -5537.2°C - 6.0 mph NNE9.7 kmh NNE 9.2 mph14.8 kmh 25.04 in848.0 mb 0.00 in0.0 mm 0.00 in0.0 mm 0.00 in0.0 mm
02:36 PM 74.8°F23.8°C -5537.2°C - 7.0 mph N11.3 kmh N 12.1 mph19.5 kmh 25.04 in848.0 mb 0.00 in0.0 mm 0.00 in0.0 mm 0.00 in0.0 mm
02:31 PM 74.3°F23.5°C -5537.2°C - 6.0 mph N9.7 kmh N 12.5 mph20.1 kmh 25.04 in848.0 mb 0.00 in0.0 mm 0.00 in0.0 mm 0.00 in0.0 mm
02:26 PM 73.6°F23.1°C -5537.2°C - 6.0 mph WNW9.7 kmh WNW 8.7 mph14.0 kmh 25.04 in848.0 mb 0.00 in0.0 mm 0.00 in0.0 mm 0.00 in0.0 mm
02:21 PM 73.4°F23.0°C -5537.2°C - 8.0 mph WSW12.9 kmh WSW 11.6 mph18.7 kmh 25.04 in848.0 mb 0.00 in0.0 mm 0.00 in0.0 mm 0.00 in0.0 mm
02:16 PM 72.9°F22.7°C -5537.2°C - 7.0 mph W11.3 kmh W 13.9 mph22.4 kmh 25.04 in848.0 mb 0.00 in0.0 mm 0.00 in0.0 mm 0.00 in0.0 mm
02:11 PM 73.8°F23.2°C -5537.2°C - 6.0 mph NE9.7 kmh NE 15.4 mph24.8 kmh 25.04 in848.0 mb 0.00 in0.0 mm 0.00 in0.0 mm 0.00 in0.0 mm
02:06 PM 73.0°F22.8°C -5537.2°C - 6.0 mph NE9.7 kmh NE 9.6 mph15.4 kmh 25.04 in848.0 mb 0.00 in0.0 mm 0.00 in0.0 mm 0.00 in0.0 mm
02:01 PM 73.4°F23.0°C -5537.2°C - 7.0 mph N11.3 kmh N 13.9 mph22.4 kmh 25.04 in848.0 mb 0.00 in0.0 mm 0.00 in0.0 mm 0.00 in0.0 mm
01:56 PM 73.8°F23.2°C -5537.2°C - 6.0 mph NNE9.7 kmh NNE 11.6 mph18.7 kmh 25.04 in848.0 mb 0.00 in0.0 mm 0.00 in0.0 mm 0.00 in0.0 mm
01:51 PM 72.7°F22.6°C -5537.2°C - 4.0 mph WSW6.4 kmh WSW 7.4 mph11.9 kmh 25.04 in848.0 mb 0.00 in0.0 mm 0.00 in0.0 mm 0.00 in0.0 mm
01:46 PM 71.8°F22.1°C -5537.2°C - 4.0 mph W6.4 kmh W 5.4 mph8.7 kmh 25.04 in848.0 mb 0.00 in0.0 mm 0.00 in0.0 mm 0.00 in0.0 mm
01:41 PM 72.0°F22.2°C -5537.2°C - 5.0 mph W8.0 kmh W 9.2 mph14.8 kmh 25.04 in848.0 mb 0.00 in0.0 mm 0.00 in0.0 mm 0.00 in0.0 mm
01:36 PM 71.6°F22.0°C -5537.2°C - 6.0 mph WSW9.7 kmh WSW 9.6 mph15.4 kmh 25.04 in848.0 mb 0.00 in0.0 mm 0.00 in0.0 mm 0.00 in0.0 mm
01:31 PM 71.2°F21.8°C -5537.2°C - 5.0 mph W8.0 kmh W 7.8 mph12.6 kmh 25.04 in848.0 mb 0.00 in0.0 mm 0.00 in0.0 mm 0.00 in0.0 mm
01:26 PM 71.8°F22.1°C -5537.2°C - 4.0 mph NNW6.4 kmh NNW 7.4 mph11.9 kmh 25.07 in849.0 mb 0.00 in0.0 mm 0.00 in0.0 mm 0.00 in0.0 mm
01:21 PM 71.4°F21.9°C -5537.2°C - 4.0 mph NW6.4 kmh NW 6.3 mph10.1 kmh 25.07 in849.0 mb 0.00 in0.0 mm 0.00 in0.0 mm 0.00 in0.0 mm
01:16 PM 70.5°F21.4°C -5537.2°C - 5.0 mph NNW8.0 kmh NNW 9.6 mph15.4 kmh 25.07 in849.0 mb 0.00 in0.0 mm 0.00 in0.0 mm 0.00 in0.0 mm
01:11 PM 70.7°F21.5°C -5537.2°C - 5.0 mph N8.0 kmh N 9.6 mph15.4 kmh 25.07 in849.0 mb 0.00 in0.0 mm 0.00 in0.0 mm 0.00 in0.0 mm
01:06 PM 71.4°F21.9°C -5537.2°C - 5.0 mph NNW8.0 kmh NNW 9.2 mph14.8 kmh 25.07 in849.0 mb 0.00 in0.0 mm 0.00 in0.0 mm 0.00 in0.0 mm
01:01 PM 71.6°F22.0°C -5537.2°C - 5.0 mph NNE8.0 kmh NNE 9.6 mph15.4 kmh 25.07 in849.0 mb 0.00 in0.0 mm 0.00 in0.0 mm 0.00 in0.0 mm
12:56 PM 71.2°F21.8°C 14.0°F-10.0°C 11% 5.0 mph NE8.0 kmh NE 8.3 mph13.4 kmh 25.07 in849.0 mb 0.00 in0.0 mm 0.00 in0.0 mm 0.00 in0.0 mm
12:51 PM 71.1°F21.7°C 13.8°F-10.1°C 11% 4.0 mph NE6.4 kmh NE 9.2 mph14.8 kmh 25.07 in849.0 mb 0.00 in0.0 mm 0.00 in0.0 mm 0.00 in0.0 mm
12:46 PM 71.1°F21.7°C 13.8°F-10.1°C 11% 4.0 mph ESE6.4 kmh ESE 6.7 mph10.8 kmh 25.07 in849.0 mb 0.00 in0.0 mm 0.00 in0.0 mm 0.00 in0.0 mm
12:41 PM 70.5°F21.4°C 15.4°F-9.2°C 12% 5.0 mph S8.0 kmh S 6.9 mph11.1 kmh 25.07 in849.0 mb 0.00 in0.0 mm 0.00 in0.0 mm 0.00 in0.0 mm
12:35 PM 70.0°F21.1°C 15.1°F-9.4°C 12% 5.0 mph SW8.0 kmh SW 8.7 mph14.0 kmh 25.07 in849.0 mb 0.00 in0.0 mm 0.00 in0.0 mm 0.00 in0.0 mm
12:30 PM 69.4°F20.8°C 14.7°F-9.6°C 12% 6.0 mph WSW9.7 kmh WSW 7.4 mph11.9 kmh 25.07 in849.0 mb 0.00 in0.0 mm 0.00 in0.0 mm 0.00 in0.0 mm
12:25 PM 69.1°F20.6°C 14.4°F-9.8°C 12% 6.0 mph WSW9.7 kmh WSW 11.2 mph18.0 kmh 25.07 in849.0 mb 0.00 in0.0 mm 0.00 in0.0 mm 0.00 in0.0 mm
12:20 PM 69.3°F20.7°C 14.5°F-9.7°C 12% 6.0 mph WSW9.7 kmh WSW 9.6 mph15.4 kmh 25.07 in849.0 mb 0.00 in0.0 mm 0.00 in0.0 mm 0.00 in0.0 mm
12:15 PM 69.3°F20.7°C 14.5°F-9.7°C 12% 6.0 mph SW9.7 kmh SW 11.0 mph17.7 kmh 25.07 in849.0 mb 0.00 in0.0 mm 0.00 in0.0 mm 0.00 in0.0 mm
12:10 PM 69.1°F20.6°C 18.0°F-7.8°C 14% 4.0 mph WNW6.4 kmh WNW 8.7 mph14.0 kmh 25.07 in849.0 mb 0.00 in0.0 mm 0.00 in0.0 mm 0.00 in0.0 mm
12:05 PM 69.3°F20.7°C 18.0°F-7.8°C 14% 4.0 mph NNW6.4 kmh NNW 6.3 mph10.1 kmh 25.07 in849.0 mb 0.00 in0.0 mm 0.00 in0.0 mm 0.00 in0.0 mm
12:00 PM 68.5°F20.3°C 19.0°F-7.2°C 15% 5.0 mph N8.0 kmh N 9.6 mph15.4 kmh 25.07 in849.0 mb 0.00 in0.0 mm 0.00 in0.0 mm 0.00 in0.0 mm
11:55 AM 69.1°F20.6°C 22.5°F-5.3°C 17% 5.0 mph NW8.0 kmh NW 9.6 mph15.4 kmh 25.07 in849.0 mb 0.00 in0.0 mm 0.00 in0.0 mm 0.00 in0.0 mm
11:50 AM 68.0°F20.0°C 25.5°F-3.6°C 20% 4.0 mph W6.4 kmh W 8.3 mph13.4 kmh 25.07 in849.0 mb 0.00 in0.0 mm 0.00 in0.0 mm 0.00 in0.0 mm
11:45 AM 68.4°F20.2°C 21.9°F-5.6°C 17% 4.0 mph WNW6.4 kmh WNW 10.5 mph16.9 kmh 25.07 in849.0 mb 0.00 in0.0 mm 0.00 in0.0 mm 0.00 in0.0 mm
11:40 AM 67.5°F19.7°C 21.2°F-6.0°C 17% 3.0 mph NW4.8 kmh NW 6.9 mph11.1 kmh 25.07 in849.0 mb 0.00 in0.0 mm 0.00 in0.0 mm 0.00 in0.0 mm
11:35 AM 67.3°F19.6°C 21.0°F-6.1°C 17% 4.0 mph N6.4 kmh N 8.3 mph13.4 kmh 25.07 in849.0 mb 0.00 in0.0 mm 0.00 in0.0 mm 0.00 in0.0 mm
11:30 AM 67.3°F19.6°C 21.0°F-6.1°C 17% 4.0 mph N6.4 kmh N 7.4 mph11.9 kmh 25.07 in849.0 mb 0.00 in0.0 mm 0.00 in0.0 mm 0.00 in0.0 mm
11:25 AM 67.3°F19.6°C 24.8°F-4.0°C 20% 4.0 mph N6.4 kmh N 7.8 mph12.6 kmh 25.07 in849.0 mb 0.00 in0.0 mm 0.00 in0.0 mm 0.00 in0.0 mm
11:20 AM 66.4°F19.1°C 24.1°F-4.4°C 20% 5.0 mph N8.0 kmh N 9.6 mph15.4 kmh 25.07 in849.0 mb 0.00 in0.0 mm 0.00 in0.0 mm 0.00 in0.0 mm
11:15 AM 66.4°F19.1°C 27.5°F-2.5°C 23% 5.0 mph N8.0 kmh N 8.7 mph14.0 kmh 25.07 in849.0 mb 0.00 in0.0 mm 0.00 in0.0 mm 0.00 in0.0 mm
11:10 AM 66.0°F18.9°C 27.1°F-2.7°C 23% 5.0 mph NNW8.0 kmh NNW 8.7 mph14.0 kmh 25.10 in850.0 mb 0.00 in0.0 mm 0.00 in0.0 mm 0.00 in0.0 mm
11:05 AM 65.7°F18.7°C 26.8°F-2.9°C 23% 6.0 mph NNW9.7 kmh NNW 8.3 mph13.4 kmh 25.10 in850.0 mb 0.00 in0.0 mm 0.00 in0.0 mm 0.00 in0.0 mm
11:00 AM 65.7°F18.7°C 27.9°F-2.3°C 24% 6.0 mph N9.7 kmh N 11.6 mph18.7 kmh 25.10 in850.0 mb 0.00 in0.0 mm 0.00 in0.0 mm 0.00 in0.0 mm
10:55 AM 64.9°F18.3°C 27.3°F-2.6°C 24% 6.0 mph N9.7 kmh N 9.6 mph15.4 kmh 25.07 in849.0 mb 0.00 in0.0 mm 0.00 in0.0 mm 0.00 in0.0 mm
10:50 AM 64.8°F18.2°C 27.1°F-2.7°C 24% 6.0 mph NNW9.7 kmh NNW 12.5 mph20.1 kmh 25.07 in849.0 mb 0.00 in0.0 mm 0.00 in0.0 mm 0.00 in0.0 mm
10:45 AM 64.4°F18.0°C 26.8°F-2.9°C 24% 6.0 mph NW9.7 kmh NW 9.2 mph14.8 kmh 25.07 in849.0 mb 0.00 in0.0 mm 0.00 in0.0 mm 0.00 in0.0 mm
10:40 AM 64.8°F18.2°C 28.0°F-2.2°C 25% 6.0 mph NW9.7 kmh NW 11.2 mph18.0 kmh 25.10 in850.0 mb 0.00 in0.0 mm 0.00 in0.0 mm 0.00 in0.0 mm
10:35 AM 63.9°F17.7°C 29.3°F-1.5°C 27% 7.0 mph NW11.3 kmh NW 11.0 mph17.7 kmh 25.10 in850.0 mb 0.00 in0.0 mm 0.00 in0.0 mm 0.00 in0.0 mm
10:30 AM 62.1°F16.7°C 26.8°F-2.9°C 26% 7.0 mph NW11.3 kmh NW 11.2 mph18.0 kmh 25.10 in850.0 mb 0.00 in0.0 mm 0.00 in0.0 mm 0.00 in0.0 mm
10:25 AM 62.6°F17.0°C 27.3°F-2.6°C 26% 6.0 mph NW9.7 kmh NW 10.1 mph16.3 kmh 25.10 in850.0 mb 0.00 in0.0 mm 0.00 in0.0 mm 0.00 in0.0 mm
10:20 AM 62.6°F17.0°C 28.2°F-2.1°C 27% 6.0 mph NNW9.7 kmh NNW 10.5 mph16.9 kmh 25.10 in850.0 mb 0.00 in0.0 mm 0.00 in0.0 mm 0.00 in0.0 mm
10:15 AM 61.5°F16.4°C 28.0°F-2.2°C 28% 7.0 mph NNW11.3 kmh NNW 11.2 mph18.0 kmh 25.10 in850.0 mb 0.00 in0.0 mm 0.00 in0.0 mm 0.00 in0.0 mm
10:10 AM 61.2°F16.2°C 27.9°F-2.3°C 28% 8.0 mph N12.9 kmh N 10.5 mph16.9 kmh 25.10 in850.0 mb 0.00 in0.0 mm 0.00 in0.0 mm 0.00 in0.0 mm
10:05 AM 62.1°F16.7°C 28.6°F-1.9°C 28% 8.0 mph N12.9 kmh N 13.9 mph22.4 kmh 25.10 in850.0 mb 0.00 in0.0 mm 0.00 in0.0 mm 0.00 in0.0 mm
10:00 AM 61.2°F16.2°C 28.6°F-1.9°C 29% 7.0 mph N11.3 kmh N 11.2 mph18.0 kmh 25.10 in850.0 mb 0.00 in0.0 mm 0.00 in0.0 mm 0.00 in0.0 mm
09:55 AM 61.2°F16.2°C 29.5°F-1.4°C 30% 7.0 mph NNW11.3 kmh NNW 11.2 mph18.0 kmh 25.10 in850.0 mb 0.00 in0.0 mm 0.00 in0.0 mm 0.00 in0.0 mm
09:50 AM 60.1°F15.6°C 28.6°F-1.9°C 30% 7.0 mph NNW11.3 kmh NNW 11.2 mph18.0 kmh 25.10 in850.0 mb 0.00 in0.0 mm 0.00 in0.0 mm 0.00 in0.0 mm
09:45 AM 59.9°F15.5°C 29.1°F-1.6°C 31% 7.0 mph NNW11.3 kmh NNW 11.0 mph17.7 kmh 25.10 in850.0 mb 0.00 in0.0 mm 0.00 in0.0 mm 0.00 in0.0 mm
09:40 AM 59.9°F15.5°C 30.7°F-0.7°C 33% 7.0 mph NNW11.3 kmh NNW 11.0 mph17.7 kmh 25.10 in850.0 mb 0.00 in0.0 mm 0.00 in0.0 mm 0.00 in0.0 mm
09:35 AM 59.9°F15.5°C 30.7°F-0.7°C 33% 6.0 mph NNW9.7 kmh NNW 8.7 mph14.0 kmh 25.10 in850.0 mb 0.00 in0.0 mm 0.00 in0.0 mm 0.00 in0.0 mm
09:30 AM 60.4°F15.8°C 32.0°F0.0°C 34% 6.0 mph NNW9.7 kmh NNW 10.1 mph16.3 kmh 25.10 in850.0 mb 0.00 in0.0 mm 0.00 in0.0 mm 0.00 in0.0 mm
09:25 AM 58.6°F14.8°C 30.4°F-0.9°C 34% 5.0 mph N8.0 kmh N 10.5 mph16.9 kmh 25.10 in850.0 mb 0.00 in0.0 mm 0.00 in0.0 mm 0.00 in0.0 mm
09:20 AM 58.8°F14.9°C 31.3°F-0.4°C 35% 5.0 mph NNW8.0 kmh NNW 8.3 mph13.4 kmh 25.10 in850.0 mb 0.00 in0.0 mm 0.00 in0.0 mm 0.00 in0.0 mm
09:15 AM 58.3°F14.6°C 31.5°F-0.3°C 36% 6.0 mph NNW9.7 kmh NNW 7.8 mph12.6 kmh 25.10 in850.0 mb 0.00 in0.0 mm 0.00 in0.0 mm 0.00 in0.0 mm
09:10 AM 57.7°F14.3°C 31.6°F-0.2°C 37% 6.0 mph NNW9.7 kmh NNW 9.2 mph14.8 kmh 25.10 in850.0 mb 0.00 in0.0 mm 0.00 in0.0 mm 0.00 in0.0 mm
09:05 AM 57.4°F14.1°C 31.3°F-0.4°C 37% 6.0 mph NNW9.7 kmh NNW 8.3 mph13.4 kmh 25.10 in850.0 mb 0.00 in0.0 mm 0.00 in0.0 mm 0.00 in0.0 mm
09:00 AM 57.2°F14.0°C 31.1°F-0.5°C 37% 6.0 mph NNW9.7 kmh NNW 10.1 mph16.3 kmh 25.10 in850.0 mb 0.00 in0.0 mm 0.00 in0.0 mm 0.00 in0.0 mm
08:55 AM 56.7°F13.7°C 31.3°F-0.4°C 38% 6.0 mph N9.7 kmh N 11.0 mph17.7 kmh 25.10 in850.0 mb 0.00 in0.0 mm 0.00 in0.0 mm 0.00 in0.0 mm
08:50 AM 56.7°F13.7°C 31.3°F-0.4°C 38% 6.0 mph N9.7 kmh N 10.1 mph16.3 kmh 25.10 in850.0 mb 0.00 in0.0 mm 0.00 in0.0 mm 0.00 in0.0 mm
08:45 AM 55.9°F13.3°C 31.3°F-0.4°C 39% 6.0 mph NNW9.7 kmh NNW 8.7 mph14.0 kmh 25.10 in850.0 mb 0.00 in0.0 mm 0.00 in0.0 mm 0.00 in0.0 mm
08:40 AM 55.9°F13.3°C 31.3°F-0.4°C 39% 7.0 mph NNW11.3 kmh NNW 10.1 mph16.3 kmh 25.10 in850.0 mb 0.00 in0.0 mm 0.00 in0.0 mm 0.00 in0.0 mm
08:35 AM 54.9°F12.7°C 30.9°F-0.6°C 40% 7.0 mph NNW11.3 kmh NNW 12.1 mph19.5 kmh 25.10 in850.0 mb 0.00 in0.0 mm 0.00 in0.0 mm 0.00 in0.0 mm
08:30 AM 54.7°F12.6°C 31.5°F-0.3°C 41% 6.0 mph N9.7 kmh N 10.5 mph16.9 kmh 25.10 in850.0 mb 0.00 in0.0 mm 0.00 in0.0 mm 0.00 in0.0 mm
08:25 AM 54.3°F12.4°C 31.6°F-0.2°C 42% 6.0 mph N9.7 kmh N 10.1 mph16.3 kmh 25.10 in850.0 mb 0.00 in0.0 mm 0.00 in0.0 mm 0.00 in0.0 mm
08:20 AM 54.7°F12.6°C 32.0°F0.0°C 42% 6.0 mph NNW9.7 kmh NNW 10.1 mph16.3 kmh 25.10 in850.0 mb 0.00 in0.0 mm 0.00 in0.0 mm 0.00 in0.0 mm
08:15 AM 54.5°F12.5°C 31.3°F-0.4°C 41% 6.0 mph NW9.7 kmh NW 9.6 mph15.4 kmh 25.10 in850.0 mb 0.00 in0.0 mm 0.00 in0.0 mm 0.00 in0.0 mm
08:10 AM 54.5°F12.5°C 31.8°F-0.1°C 42% 6.0 mph NNW9.7 kmh NNW 9.6 mph15.4 kmh 25.07 in849.0 mb 0.00 in0.0 mm 0.00 in0.0 mm 0.00 in0.0 mm
08:05 AM 54.5°F12.5°C 31.3°F-0.4°C 41% 6.0 mph NNW9.7 kmh NNW 8.3 mph13.4 kmh 25.07 in849.0 mb 0.00 in0.0 mm 0.00 in0.0 mm 0.00 in0.0 mm
08:00 AM 54.9°F12.7°C 32.7°F0.4°C 43% 6.0 mph N9.7 kmh N 8.3 mph13.4 kmh 25.07 in849.0 mb 0.00 in0.0 mm 0.00 in0.0 mm 0.00 in0.0 mm
07:55 AM 54.0°F12.2°C 31.5°F-0.3°C 42% 7.0 mph N11.3 kmh N 10.1 mph16.3 kmh 25.07 in849.0 mb 0.00 in0.0 mm 0.00 in0.0 mm 0.00 in0.0 mm
07:50 AM 54.3°F12.4°C 31.6°F-0.2°C 42% 6.0 mph N9.7 kmh N 10.5 mph16.9 kmh 25.07 in849.0 mb 0.00 in0.0 mm 0.00 in0.0 mm 0.00 in0.0 mm
07:45 AM 54.0°F12.2°C 31.5°F-0.3°C 42% 6.0 mph NNW9.7 kmh NNW 10.1 mph16.3 kmh 25.07 in849.0 mb 0.00 in0.0 mm 0.00 in0.0 mm 0.00 in0.0 mm
07:40 AM 53.8°F12.1°C 31.3°F-0.4°C 42% 6.0 mph NNW9.7 kmh NNW 7.8 mph12.6 kmh 25.07 in849.0 mb 0.00 in0.0 mm 0.00 in0.0 mm 0.00 in0.0 mm
07:35 AM 53.4°F11.9°C 31.5°F-0.3°C 43% 6.0 mph NNW9.7 kmh NNW 8.3 mph13.4 kmh 25.07 in849.0 mb 0.00 in0.0 mm 0.00 in0.0 mm 0.00 in0.0 mm
07:30 AM 53.4°F11.9°C 31.5°F-0.3°C 43% 7.0 mph N11.3 kmh N 10.1 mph16.3 kmh 25.07 in849.0 mb 0.00 in0.0 mm 0.00 in0.0 mm 0.00 in0.0 mm
07:25 AM 53.1°F11.7°C 31.8°F-0.1°C 44% 6.0 mph N9.7 kmh N 11.0 mph17.7 kmh 25.07 in849.0 mb 0.00 in0.0 mm 0.00 in0.0 mm 0.00 in0.0 mm
07:20 AM 52.7°F11.5°C 32.5°F0.3°C 46% 6.0 mph N9.7 kmh N 8.7 mph14.0 kmh 25.07 in849.0 mb 0.00 in0.0 mm 0.00 in0.0 mm 0.00 in0.0 mm
07:15 AM 52.3°F11.3°C 32.7°F0.4°C 47% 6.0 mph N9.7 kmh N 9.2 mph14.8 kmh 25.07 in849.0 mb 0.00 in0.0 mm 0.00 in0.0 mm 0.00 in0.0 mm
07:10 AM 51.8°F11.0°C 33.3°F0.7°C 49% 5.0 mph N8.0 kmh N 9.2 mph14.8 kmh 25.07 in849.0 mb 0.00 in0.0 mm 0.00 in0.0 mm 0.00 in0.0 mm
07:05 AM 50.7°F10.4°C 35.1°F1.7°C 55% 3.0 mph NE4.8 kmh NE 7.8 mph12.6 kmh 25.07 in849.0 mb 0.00 in0.0 mm 0.00 in0.0 mm 0.00 in0.0 mm
07:00 AM 48.9°F9.4°C 36.5°F2.5°C 62% 2.0 mph NE3.2 kmh NE 4.5 mph7.2 kmh 25.07 in849.0 mb 0.00 in0.0 mm 0.00 in0.0 mm 0.00 in0.0 mm
06:55 AM 48.2°F9.0°C 36.1°F2.3°C 63% 3.0 mph NE4.8 kmh NE 6.9 mph11.1 kmh 25.07 in849.0 mb 0.00 in0.0 mm 0.00 in0.0 mm 0.00 in0.0 mm
06:50 AM 47.7°F8.7°C 36.9°F2.7°C 66% 3.0 mph NNE4.8 kmh NNE 6.7 mph10.8 kmh 25.07 in849.0 mb 0.00 in0.0 mm 0.00 in0.0 mm 0.00 in0.0 mm
06:45 AM 46.9°F8.3°C 36.1°F2.3°C 66% 2.0 mph N3.2 kmh N 5.8 mph9.3 kmh 25.07 in849.0 mb 0.00 in0.0 mm 0.00 in0.0 mm 0.00 in0.0 mm
06:40 AM 47.7°F8.7°C 37.6°F3.1°C 68% 2.0 mph N3.2 kmh N 5.4 mph8.7 kmh 25.07 in849.0 mb 0.00 in0.0 mm 0.00 in0.0 mm 0.00 in0.0 mm
06:35 AM 46.8°F8.2°C 37.6°F3.1°C 70% 2.0 mph NNE3.2 kmh NNE 6.7 mph10.8 kmh 25.07 in849.0 mb 0.00 in0.0 mm 0.00 in0.0 mm 0.00 in0.0 mm
06:30 AM 46.0°F7.8°C 36.9°F2.7°C 70% 3.0 mph NNE4.8 kmh NNE 4.0 mph6.4 kmh 25.07 in849.0 mb 0.00 in0.0 mm 0.00 in0.0 mm 0.00 in0.0 mm
06:25 AM 45.9°F7.7°C 36.7°F2.6°C 70% 3.0 mph NNE4.8 kmh NNE 4.5 mph7.2 kmh 25.04 in848.0 mb 0.00 in0.0 mm 0.00 in0.0 mm 0.00 in0.0 mm
06:20 AM 46.0°F7.8°C 36.9°F2.7°C 70% 4.0 mph N6.4 kmh N 5.8 mph9.3 kmh 25.04 in848.0 mb 0.00 in0.0 mm 0.00 in0.0 mm 0.00 in0.0 mm
06:15 AM 46.6°F8.1°C 37.4°F3.0°C 70% 4.0 mph N6.4 kmh N 5.8 mph9.3 kmh 25.04 in848.0 mb 0.00 in0.0 mm 0.00 in0.0 mm 0.00 in0.0 mm
06:10 AM 46.9°F8.3°C 37.2°F2.9°C 69% 4.0 mph N6.4 kmh N 5.8 mph9.3 kmh 25.04 in848.0 mb 0.00 in0.0 mm 0.00 in0.0 mm 0.00 in0.0 mm
06:05 AM 47.1°F8.4°C 37.0°F2.8°C 68% 3.0 mph N4.8 kmh N 5.8 mph9.3 kmh 25.04 in848.0 mb 0.00 in0.0 mm 0.00 in0.0 mm 0.00 in0.0 mm
06:00 AM 47.1°F8.4°C 36.3°F2.4°C 66% 3.0 mph NNW4.8 kmh NNW 5.4 mph8.7 kmh 25.04 in848.0 mb 0.00 in0.0 mm 0.00 in0.0 mm 0.00 in0.0 mm
05:55 AM 47.5°F8.6°C 36.0°F2.2°C 64% 2.0 mph NW3.2 kmh NW 4.5 mph7.2 kmh 25.04 in848.0 mb 0.00 in0.0 mm 0.00 in0.0 mm 0.00 in0.0 mm
05:50 AM 47.7°F8.7°C 35.8°F2.1°C 63% 1.0 mph NNW1.6 kmh NNW 3.6 mph5.8 kmh 25.04 in848.0 mb 0.00 in0.0 mm 0.00 in0.0 mm 0.00 in0.0 mm
05:45 AM 47.5°F8.6°C 34.3°F1.3°C 60% Calm Calm 3.6 mph5.8 kmh 25.04 in848.0 mb 0.00 in0.0 mm 0.00 in0.0 mm 0.00 in0.0 mm
05:40 AM 47.3°F8.5°C 34.2°F1.2°C 60% Calm Calm -- 25.04 in848.0 mb 0.00 in0.0 mm 0.00 in0.0 mm 0.00 in0.0 mm
05:35 AM 47.1°F8.4°C 34.0°F1.1°C 60% Calm Calm -- 25.04 in848.0 mb 0.00 in0.0 mm 0.00 in0.0 mm 0.00 in0.0 mm
05:30 AM 46.8°F8.2°C 33.3°F0.7°C 59% Calm Calm -- 25.04 in848.0 mb 0.00 in0.0 mm 0.00 in0.0 mm 0.00 in0.0 mm
05:25 AM 46.9°F8.3°C 33.4°F0.8°C 59% Calm Calm -- 25.04 in848.0 mb 0.00 in0.0 mm 0.00 in0.0 mm 0.00 in0.0 mm
05:20 AM 46.9°F8.3°C 32.5°F0.3°C 57% Calm Calm -- 25.04 in848.0 mb 0.00 in0.0 mm 0.00 in0.0 mm 0.00 in0.0 mm
05:15 AM 47.1°F8.4°C 32.2°F0.1°C 56% Calm Calm 2.7 mph4.3 kmh 25.04 in848.0 mb 0.00 in0.0 mm 0.00 in0.0 mm 0.00 in0.0 mm
05:10 AM 47.1°F8.4°C 31.3°F-0.4°C 54% Calm Calm -- 25.04 in848.0 mb 0.00 in0.0 mm 0.00 in0.0 mm 0.00 in0.0 mm
05:05 AM 47.3°F8.5°C 30.6°F-0.8°C 52% Calm Calm -- 25.04 in848.0 mb 0.00 in0.0 mm 0.00 in0.0 mm 0.00 in0.0 mm
05:00 AM 48.2°F9.0°C 30.9°F-0.6°C 51% Calm Calm -- 25.04 in848.0 mb 0.00 in0.0 mm 0.00 in0.0 mm 0.00 in0.0 mm
04:55 AM 48.7°F9.3°C 31.5°F-0.3°C 51% Calm Calm 3.1 mph5.0 kmh 25.04 in848.0 mb 0.00 in0.0 mm 0.00 in0.0 mm 0.00 in0.0 mm
04:50 AM 49.1°F9.5°C 32.2°F0.1°C 52% Calm Calm 4.9 mph7.9 kmh 25.04 in848.0 mb 0.00 in0.0 mm 0.00 in0.0 mm 0.00 in0.0 mm
04:45 AM 48.6°F9.2°C 31.8°F-0.1°C 52% Calm Calm -- 25.04 in848.0 mb 0.00 in0.0 mm 0.00 in0.0 mm 0.00 in0.0 mm
04:40 AM 48.7°F9.3°C 31.5°F-0.3°C 51% Calm Calm -- 25.04 in848.0 mb 0.00 in0.0 mm 0.00 in0.0 mm 0.00 in0.0 mm
04:35 AM 48.7°F9.3°C 31.8°F-0.1°C 52% Calm Calm 2.7 mph4.3 kmh 25.04 in848.0 mb 0.00 in0.0 mm 0.00 in0.0 mm 0.00 in0.0 mm
04:30 AM 48.2°F9.0°C 31.5°F-0.3°C 52% Calm Calm -- 25.04 in848.0 mb 0.00 in0.0 mm 0.00 in0.0 mm 0.00 in0.0 mm
04:25 AM 48.4°F9.1°C 31.1°F-0.5°C 51% Calm Calm -- 25.04 in848.0 mb 0.00 in0.0 mm 0.00 in0.0 mm 0.00 in0.0 mm
04:20 AM 48.7°F9.3°C 30.9°F-0.6°C 50% Calm Calm 2.7 mph4.3 kmh 25.04 in848.0 mb 0.00 in0.0 mm 0.00 in0.0 mm 0.00 in0.0 mm
04:15 AM 49.3°F9.6°C 30.9°F-0.6°C 49% Calm Calm -- 25.04 in848.0 mb 0.00 in0.0 mm 0.00 in0.0 mm 0.00 in0.0 mm
04:10 AM 50.2°F10.1°C 31.8°F-0.1°C 49% Calm Calm -- 25.01 in846.9 mb 0.00 in0.0 mm 0.00 in0.0 mm 0.00 in0.0 mm
04:05 AM 50.0°F10.0°C 32.2°F0.1°C 50% Calm Calm -- 25.01 in846.9 mb 0.00 in0.0 mm 0.00 in0.0 mm 0.00 in0.0 mm
04:00 AM 49.8°F9.9°C 32.0°F0.0°C 50% Calm Calm 2.7 mph4.3 kmh 25.01 in846.9 mb 0.00 in0.0 mm 0.00 in0.0 mm 0.00 in0.0 mm
03:55 AM 50.0°F10.0°C 32.5°F0.3°C 51% 1.0 mph NNE1.6 kmh NNE 3.6 mph5.8 kmh 25.01 in846.9 mb 0.00 in0.0 mm 0.00 in0.0 mm 0.00 in0.0 mm
03:50 AM 48.9°F9.4°C 32.0°F0.0°C 52% 2.0 mph NNE3.2 kmh NNE 4.0 mph6.4 kmh 25.01 in846.9 mb 0.00 in0.0 mm 0.00 in0.0 mm 0.00 in0.0 mm
03:45 AM 48.9°F9.4°C 31.6°F-0.2°C 51% 2.0 mph NNE3.2 kmh NNE 4.9 mph7.9 kmh 25.01 in846.9 mb 0.00 in0.0 mm 0.00 in0.0 mm 0.00 in0.0 mm
03:40 AM 49.6°F9.8°C 32.2°F0.1°C 51% Calm Calm 4.9 mph7.9 kmh 25.01 in846.9 mb 0.00 in0.0 mm 0.00 in0.0 mm 0.00 in0.0 mm
03:35 AM 49.8°F9.9°C 32.0°F0.0°C 50% Calm Calm -- 25.01 in846.9 mb 0.00 in0.0 mm 0.00 in0.0 mm 0.00 in0.0 mm
03:30 AM 50.0°F10.0°C 32.2°F0.1°C 50% Calm Calm -- 25.01 in846.9 mb 0.00 in0.0 mm 0.00 in0.0 mm 0.00 in0.0 mm
03:25 AM 50.4°F10.2°C 32.4°F0.2°C 50% Calm Calm -- 25.01 in846.9 mb 0.00 in0.0 mm 0.00 in0.0 mm 0.00 in0.0 mm
03:20 AM 50.5°F10.3°C 33.1°F0.6°C 51% Calm Calm 3.1 mph5.0 kmh 25.01 in846.9 mb 0.00 in0.0 mm 0.00 in0.0 mm 0.00 in0.0 mm
03:15 AM 50.4°F10.2°C 33.8°F1.0°C 53% Calm Calm 3.1 mph5.0 kmh 25.01 in846.9 mb 0.00 in0.0 mm 0.00 in0.0 mm 0.00 in0.0 mm
03:10 AM 49.5°F9.7°C 34.0°F1.1°C 55% Calm Calm 2.7 mph4.3 kmh 25.01 in846.9 mb 0.00 in0.0 mm 0.00 in0.0 mm 0.00 in0.0 mm
03:05 AM 48.9°F9.4°C 34.0°F1.1°C 56% 1.0 mph NE1.6 kmh NE 3.1 mph5.0 kmh 25.01 in846.9 mb 0.00 in0.0 mm 0.00 in0.0 mm 0.00 in0.0 mm
03:00 AM 49.1°F9.5°C 34.5°F1.4°C 57% Calm Calm 3.6 mph5.8 kmh 25.01 in846.9 mb 0.00 in0.0 mm 0.00 in0.0 mm 0.00 in0.0 mm
02:55 AM 48.7°F9.3°C 34.2°F1.2°C 57% Calm Calm 3.6 mph5.8 kmh 25.01 in846.9 mb 0.00 in0.0 mm 0.00 in0.0 mm 0.00 in0.0 mm
02:50 AM 49.1°F9.5°C 34.2°F1.2°C 56% Calm Calm -- 25.01 in846.9 mb 0.00 in0.0 mm 0.00 in0.0 mm 0.00 in0.0 mm
02:45 AM 49.5°F9.7°C 34.3°F1.3°C 56% Calm Calm -- 25.01 in846.9 mb 0.00 in0.0 mm 0.00 in0.0 mm 0.00 in0.0 mm
02:40 AM 50.0°F10.0°C 34.9°F1.6°C 56% Calm Calm -- 25.01 in846.9 mb 0.00 in0.0 mm 0.00 in0.0 mm 0.00 in0.0 mm
02:35 AM 50.7°F10.4°C 34.7°F1.5°C 54% 1.0 mph N1.6 kmh N 3.1 mph5.0 kmh 25.01 in846.9 mb 0.00 in0.0 mm 0.00 in0.0 mm 0.00 in0.0 mm
02:30 AM 51.3°F10.7°C 33.8°F1.0°C 51% 3.0 mph N4.8 kmh N 4.5 mph7.2 kmh 25.01 in846.9 mb 0.00 in0.0 mm 0.00 in0.0 mm 0.00 in0.0 mm
02:25 AM 52.3°F11.3°C 34.7°F1.5°C 51% 3.0 mph NNE4.8 kmh NNE 5.4 mph8.7 kmh 25.01 in846.9 mb 0.00 in0.0 mm 0.00 in0.0 mm 0.00 in0.0 mm
02:20 AM 51.3°F10.7°C 37.0°F2.8°C 58% 2.0 mph NNE3.2 kmh NNE 5.4 mph8.7 kmh 25.01 in846.9 mb 0.00 in0.0 mm 0.00 in0.0 mm 0.00 in0.0 mm
02:15 AM 51.3°F10.7°C 37.9°F3.3°C 60% 1.0 mph NNE1.6 kmh NNE 4.5 mph7.2 kmh 25.01 in846.9 mb 0.00 in0.0 mm 0.00 in0.0 mm 0.00 in0.0 mm
02:10 AM 50.4°F10.2°C 36.5°F2.5°C 59% Calm Calm 3.1 mph5.0 kmh 25.01 in846.9 mb 0.00 in0.0 mm 0.00 in0.0 mm 0.00 in0.0 mm
02:04 AM 50.4°F10.2°C 37.0°F2.8°C 60% Calm Calm -- 25.01 in846.9 mb 0.00 in0.0 mm 0.00 in0.0 mm 0.00 in0.0 mm
01:59 AM 51.1°F10.6°C 37.2°F2.9°C 59% Calm Calm -- 25.01 in846.9 mb 0.00 in0.0 mm 0.00 in0.0 mm 0.00 in0.0 mm
01:54 AM 51.4°F10.8°C 38.5°F3.6°C 61% Calm Calm -- 25.01 in846.9 mb 0.00 in0.0 mm 0.00 in0.0 mm 0.00 in0.0 mm
01:49 AM 50.9°F10.5°C 37.6°F3.1°C 60% Calm Calm -- 25.01 in846.9 mb 0.00 in0.0 mm 0.00 in0.0 mm 0.00 in0.0 mm
01:44 AM 51.1°F10.6°C 37.8°F3.2°C 60% Calm Calm -- 25.01 in846.9 mb 0.00 in0.0 mm 0.00 in0.0 mm 0.00 in0.0 mm
01:39 AM 51.1°F10.6°C 37.8°F3.2°C 60% Calm Calm -- 25.01 in846.9 mb 0.00 in0.0 mm 0.00 in0.0 mm 0.00 in0.0 mm
01:34 AM 51.6°F10.9°C 38.1°F3.4°C 60% Calm Calm -- 25.01 in846.9 mb 0.00 in0.0 mm 0.00 in0.0 mm 0.00 in0.0 mm
01:29 AM 51.6°F10.9°C 38.1°F3.4°C 60% Calm Calm -- 25.01 in846.9 mb 0.00 in0.0 mm 0.00 in0.0 mm 0.00 in0.0 mm
01:24 AM 51.4°F10.8°C 37.9°F3.3°C 60% Calm Calm -- 25.01 in846.9 mb 0.00 in0.0 mm 0.00 in0.0 mm 0.00 in0.0 mm
01:19 AM 51.6°F10.9°C 37.8°F3.2°C 59% Calm Calm -- 25.01 in846.9 mb 0.00 in0.0 mm 0.00 in0.0 mm 0.00 in0.0 mm
01:14 AM 52.0°F11.1°C 37.6°F3.1°C 58% Calm Calm -- 25.01 in846.9 mb 0.00 in0.0 mm 0.00 in0.0 mm 0.00 in0.0 mm
01:09 AM 52.2°F11.2°C 37.8°F3.2°C 58% Calm Calm 4.0 mph6.4 kmh 25.01 in846.9 mb 0.00 in0.0 mm 0.00 in0.0 mm 0.00 in0.0 mm
01:04 AM 52.5°F11.4°C 38.1°F3.4°C 58% Calm Calm 4.0 mph6.4 kmh 25.01 in846.9 mb 0.00 in0.0 mm 0.00 in0.0 mm 0.00 in0.0 mm
12:59 AM 52.9°F11.6°C 37.2°F2.9°C 55% 2.0 mph N3.2 kmh N 3.6 mph5.8 kmh 25.01 in846.9 mb 0.00 in0.0 mm 0.00 in0.0 mm 0.00 in0.0 mm
12:54 AM 53.4°F11.9°C 37.2°F2.9°C 54% 5.0 mph N8.0 kmh N 7.8 mph12.6 kmh 25.01 in846.9 mb 0.00 in0.0 mm 0.00 in0.0 mm 0.00 in0.0 mm
12:49 AM 53.8°F12.1°C 37.0°F2.8°C 53% 6.0 mph N9.7 kmh N 9.2 mph14.8 kmh 25.01 in846.9 mb 0.00 in0.0 mm 0.00 in0.0 mm 0.00 in0.0 mm
12:44 AM 54.1°F12.3°C 36.5°F2.5°C 51% 6.0 mph NNW9.7 kmh NNW 7.8 mph12.6 kmh 25.01 in846.9 mb 0.00 in0.0 mm 0.00 in0.0 mm 0.00 in0.0 mm
12:39 AM 54.7°F12.6°C 34.3°F1.3°C 46% 6.0 mph NNW9.7 kmh NNW 10.1 mph16.3 kmh 25.01 in846.9 mb 0.00 in0.0 mm 0.00 in0.0 mm 0.00 in0.0 mm
12:34 AM 55.8°F13.2°C 31.8°F-0.1°C 40% 6.0 mph NW9.7 kmh NW 6.9 mph11.1 kmh 25.01 in846.9 mb 0.00 in0.0 mm 0.00 in0.0 mm 0.00 in0.0 mm
12:29 AM 55.8°F13.2°C 31.1°F-0.5°C 39% 5.0 mph NW8.0 kmh NW 10.1 mph16.3 kmh 25.01 in846.9 mb 0.00 in0.0 mm 0.00 in0.0 mm 0.00 in0.0 mm
12:24 AM 55.9°F13.3°C 30.7°F-0.7°C 38% 4.0 mph N6.4 kmh N 9.2 mph14.8 kmh 25.01 in846.9 mb 0.00 in0.0 mm 0.00 in0.0 mm 0.00 in0.0 mm
12:19 AM 56.7°F13.7°C 29.3°F-1.5°C 35% 3.0 mph N4.8 kmh N 4.9 mph7.9 kmh 25.01 in846.9 mb 0.00 in0.0 mm 0.00 in0.0 mm 0.00 in0.0 mm
12:14 AM 56.8°F13.8°C 29.5°F-1.4°C 35% 3.0 mph N4.8 kmh N 4.5 mph7.2 kmh 25.01 in846.9 mb 0.00 in0.0 mm 0.00 in0.0 mm 0.00 in0.0 mm
12:09 AM 56.7°F13.7°C 30.0°F-1.1°C 36% 4.0 mph N6.4 kmh N 5.4 mph8.7 kmh 25.01 in846.9 mb 0.00 in0.0 mm 0.00 in0.0 mm 0.00 in0.0 mm
12:04 AM 56.1°F13.4°C 30.2°F-1.0°C 37% 4.0 mph N6.4 kmh N 6.3 mph10.1 kmh 25.01 in846.9 mb 0.00 in0.0 mm 0.00 in0.0 mm 0.00 in0.0 mm